Time;durP1;ratioP1;P1;durP2;ratioP2;P2;SDS_P1;SDS_P2;PMS_P1;PMS_P2;Temp;Humidity;BMP_temperature;BMP_pressure;BME280_temperature;BME280_humidity;BME280_pressure;Samples;Min_cycle;Max_cycle;Signal;HPM_P1;HPM_P2
2023/01/10 00:00:34;;;;;;;;;;;7.90;99.90;;;;;;5016059;28;19932;-67
2023/01/10 00:03:03;;;;;;;;;;;6.30;99.90;;;;;;5016598;28;19960;-67
2023/01/10 00:05:29;;;;;;;;;;;6.30;99.90;;;;;;5024552;28;19968;-67
2023/01/10 00:07:55;;;;;;;;;;;6.30;99.90;;;;;;5032602;28;19960;-67
2023/01/10 00:10:20;;;;;;;;;;;6.80;99.90;;;;;;5034004;28;19928;-67
2023/01/10 00:15:31;;;;;;;;;;;7.30;99.90;;;;;;5029615;28;19925;-67
2023/01/10 00:17:56;;;;;;;;;;;7.20;99.90;;;;;;5033529;28;19924;-67
2023/01/10 00:20:22;;;;;;;;;;;6.50;99.90;;;;;;5056504;28;20270;-67
2023/01/10 00:22:49;;;;;;;;;;;8.20;99.90;;;;;;5057595;28;19932;-67
2023/01/10 00:25:15;;;;;;;;;;;6.40;99.90;;;;;;5032637;28;19944;-67
2023/01/10 00:27:42;;;;;;;;;;;7.60;99.90;;;;;;5032770;28;20369;-67
2023/01/10 00:30:12;;;;;;;;;;;6.50;99.90;;;;;;5034020;28;19929;-67
2023/01/10 00:32:39;;;;;;;;;;;6.50;99.90;;;;;;5031293;28;20257;-67
2023/01/10 00:35:05;;;;;;;;;;;6.70;99.90;;;;;;5031685;28;20391;-67
2023/01/10 00:37:31;;;;;;;;;;;6.60;99.90;;;;;;5031838;28;19984;-67
2023/01/10 00:39:57;;;;;;;;;;;6.90;99.90;;;;;;5032143;28;20351;-67
2023/01/10 00:45:07;;;;;;;;;;;7.80;99.90;;;;;;5033662;28;19921;-67
2023/01/10 00:47:32;;;;;;;;;;;6.60;99.90;;;;;;5032297;28;19928;-67
2023/01/10 00:49:58;;;;;;;;;;;6.60;99.90;;;;;;5033256;28;19925;-67
2023/01/10 00:52:23;;;;;;;;;;;7.60;99.90;;;;;;5033224;28;19917;-67
2023/01/10 00:54:49;;;;;;;;;;;6.60;99.90;;;;;;5031022;28;19928;-67
2023/01/10 00:57:14;;;;;;;;;;;6.80;99.90;;;;;;5031864;28;20265;-67
2023/01/10 00:59:40;;;;;;;;;;;7.50;99.90;;;;;;5031124;28;19925;-67
2023/01/10 01:02:05;;;;;;;;;;;7.10;99.90;;;;;;5032511;28;20291;-67
2023/01/10 01:04:33;;;;;;;;;;;7.00;99.90;;;;;;5032443;28;20424;-67
2023/01/10 01:07:01;;;;;;;;;;;6.50;99.90;;;;;;5032956;28;20015;-67
2023/01/10 01:09:28;;;;;;;;;;;6.60;99.90;;;;;;5031553;28;19920;-67
2023/01/10 01:11:55;;;;;;;;;;;6.70;99.90;;;;;;5015586;28;20307;-67
2023/01/10 01:14:20;;;;;;;;;;;7.00;99.90;;;;;;5032522;28;19920;-67
2023/01/10 01:16:46;;;;;;;;;;;6.60;99.90;;;;;;5014552;28;19925;-66
2023/01/10 01:19:12;;;;;;;;;;;8.00;99.90;;;;;;5014877;28;19921;-67
2023/01/10 01:21:37;;;;;;;;;;;8.50;99.90;;;;;;5014736;28;20031;-66
2023/01/10 01:24:03;;;;;;;;;;;7.10;99.90;;;;;;5014449;28;19921;-67
2023/01/10 01:26:28;;;;;;;;;;;6.50;99.90;;;;;;5032446;28;19934;-67
2023/01/10 01:28:54;;;;;;;;;;;7.30;99.90;;;;;;5032695;28;19920;-66
2023/01/10 01:31:19;;;;;;;;;;;7.00;99.90;;;;;;5013781;28;19928;-66
2023/01/10 01:33:45;;;;;;;;;;;6.60;99.90;;;;;;5032882;28;19974;-67
2023/01/10 01:36:11;;;;;;;;;;;6.60;99.90;;;;;;5032769;28;20385;-67
2023/01/10 01:38:37;;;;;;;;;;;6.60;99.90;;;;;;5027009;28;20011;-66
2023/01/10 01:41:03;;;;;;;;;;;6.90;99.90;;;;;;5032259;28;19925;-66
2023/01/10 01:43:30;;;;;;;;;;;6.50;99.90;;;;;;5031614;28;19921;-66
2023/01/10 01:46:01;;;;;;;;;;;6.50;99.90;;;;;;5014694;28;19964;-67
2023/01/10 01:48:33;;;;;;;;;;;6.50;99.90;;;;;;5032112;28;19925;-67
2023/01/10 01:51:06;;;;;;;;;;;6.40;99.90;;;;;;5031643;28;19963;-67
2023/01/10 01:53:31;;;;;;;;;;;6.40;99.90;;;;;;5014156;28;19921;-67
2023/01/10 01:56:03;;;;;;;;;;;6.60;99.90;;;;;;5014450;28;19921;-67
2023/01/10 01:58:35;;;;;;;;;;;8.70;99.90;;;;;;5013039;28;19929;-67
2023/01/10 02:01:01;;;;;;;;;;;7.30;99.90;;;;;;5032085;28;19921;-67
2023/01/10 02:03:27;;;;;;;;;;;6.90;99.90;;;;;;5031756;28;20015;-67
2023/01/10 02:05:53;;;;;;;;;;;6.40;99.90;;;;;;5025394;28;19975;-67
2023/01/10 02:08:18;;;;;;;;;;;6.40;99.90;;;;;;5030603;28;20019;-67
2023/01/10 02:10:51;;;;;;;;;;;6.70;99.90;;;;;;5032202;28;19921;-67
2023/01/10 02:13:18;;;;;;;;;;;6.30;99.90;;;;;;5031077;28;19921;-68
2023/01/10 02:15:43;;;;;;;;;;;6.30;99.90;;;;;;5030671;28;19921;-67
2023/01/10 02:18:09;;;;;;;;;;;6.50;99.90;;;;;;5031793;28;19921;-67
2023/01/10 02:20:41;;;;;;;;;;;6.50;99.90;;;;;;5029254;28;20435;-67
2023/01/10 02:23:26;;;;;;;;;;;6.90;99.90;;;;;;5031713;28;19925;-67
2023/01/10 02:26:06;;;;;;;;;;;6.20;99.90;;;;;;5029685;28;19961;-67
2023/01/10 02:28:31;;;;;;;;;;;6.20;99.90;;;;;;5028029;28;19921;-67
2023/01/10 02:31:06;;;;;;;;;;;6.20;99.90;;;;;;5030744;28;19924;-67
2023/01/10 02:33:43;;;;;;;;;;;6.20;99.90;;;;;;5026120;28;20394;-66
2023/01/10 02:36:19;;;;;;;;;;;6.20;99.90;;;;;;5028683;28;19928;-67
2023/01/10 02:38:44;;;;;;;;;;;6.20;99.90;;;;;;5031328;28;19925;-67
2023/01/10 02:41:20;;;;;;;;;;;8.20;99.90;;;;;;5030755;28;19967;-67
2023/01/10 02:43:49;;;;;;;;;;;6.20;99.90;;;;;;5030455;28;19921;-67
2023/01/10 02:46:16;;;;;;;;;;;6.30;99.90;;;;;;5030104;28;20292;-67
2023/01/10 02:48:42;;;;;;;;;;;7.30;99.90;;;;;;5029923;28;19921;-67
2023/01/10 02:51:16;;;;;;;;;;;6.80;99.90;;;;;;5031846;28;20364;-67
2023/01/10 02:53:50;;;;;;;;;;;6.20;99.90;;;;;;5031267;28;20395;-67
2023/01/10 02:56:28;;;;;;;;;;;6.20;99.90;;;;;;5033084;28;19924;-67
2023/01/10 02:59:05;;;;;;;;;;;6.20;99.90;;;;;;5031465;28;19921;-67
2023/01/10 03:01:35;;;;;;;;;;;6.20;99.90;;;;;;5031705;28;19921;-67
2023/01/10 03:04:19;;;;;;;;;;;7.60;99.90;;;;;;5033574;28;19928;-68
2023/01/10 03:06:53;;;;;;;;;;;6.30;99.90;;;;;;5035392;28;19921;-67
2023/01/10 03:09:22;;;;;;;;;;;6.20;99.90;;;;;;5016762;28;19971;-67
2023/01/10 03:11:48;;;;;;;;;;;6.20;99.90;;;;;;5034998;28;19935;-67
2023/01/10 03:14:28;;;;;;;;;;;6.30;99.90;;;;;;5034821;28;19920;-67
2023/01/10 03:16:57;;;;;;;;;;;6.30;99.90;;;;;;5012944;28;19925;-67
2023/01/10 03:19:25;;;;;;;;;;;6.30;99.90;;;;;;5017323;28;19921;-67
2023/01/10 03:21:52;;;;;;;;;;;6.30;99.90;;;;;;5013402;28;20373;-67
2023/01/10 03:24:22;;;;;;;;;;;6.70;99.90;;;;;;5033771;28;19924;-67
2023/01/10 03:26:50;;;;;;;;;;;6.30;99.90;;;;;;5016799;28;20380;-67
2023/01/10 03:29:19;;;;;;;;;;;6.30;99.90;;;;;;5033609;28;20431;-67
2023/01/10 03:31:50;;;;;;;;;;;6.30;99.90;;;;;;5034848;28;19927;-68
2023/01/10 03:34:16;;;;;;;;;;;6.50;99.90;;;;;;5016757;28;20120;-67
2023/01/10 03:36:49;;;;;;;;;;;6.30;99.90;;;;;;5016350;28;19929;-67
2023/01/10 03:39:21;;;;;;;;;;;6.40;99.90;;;;;;5034029;28;19921;-67
2023/01/10 03:41:53;;;;;;;;;;;6.40;99.90;;;;;;5037676;28;19944;-67
2023/01/10 03:44:43;;;;;;;;;;;6.30;99.90;;;;;;5012313;28;19928;-67
2023/01/10 03:47:11;;;;;;;;;;;6.30;99.90;;;;;;5033354;28;19925;-67
2023/01/10 03:49:38;;;;;;;;;;;6.30;99.90;;;;;;5034272;28;20452;-67
2023/01/10 03:52:04;;;;;;;;;;;7.70;99.90;;;;;;5033013;28;19921;-67
2023/01/10 03:54:30;;;;;;;;;;;6.20;99.90;;;;;;5015867;28;20337;-67
2023/01/10 03:56:55;;;;;;;;;;;6.20;99.90;;;;;;5033979;28;20015;-67
2023/01/10 03:59:26;;;;;;;;;;;7.30;99.90;;;;;;5033050;28;20369;-67
2023/01/10 04:01:52;;;;;;;;;;;6.10;99.90;;;;;;5016480;28;19921;-67
2023/01/10 04:04:17;;;;;;;;;;;6.10;99.90;;;;;;5014836;28;19917;-67
2023/01/10 04:06:43;;;;;;;;;;;6.30;99.90;;;;;;5034024;28;19921;-67
2023/01/10 04:09:09;;;;;;;;;;;6.00;99.90;;;;;;5034048;28;19979;-67
2023/01/10 04:11:35;;;;;;;;;;;6.60;99.90;;;;;;5015783;28;19916;-67
2023/01/10 04:14:00;;;;;;;;;;;7.10;99.90;;;;;;5015767;28;19921;-67
2023/01/10 04:16:26;;;;;;;;;;;7.10;99.90;;;;;;5016469;28;20343;-67
2023/01/10 04:18:51;;;;;;;;;;;6.00;99.90;;;;;;5032770;28;19974;-67
2023/01/10 04:21:17;;;;;;;;;;;6.90;99.90;;;;;;5016097;28;19921;-67
2023/01/10 04:23:42;;;;;;;;;;;7.10;99.90;;;;;;5016204;28;19921;-67
2023/01/10 04:26:08;;;;;;;;;;;7.60;99.90;;;;;;5014876;28;20369;-67
2023/01/10 04:28:33;;;;;;;;;;;7.30;99.90;;;;;;5033586;28;20018;-67
2023/01/10 04:30:59;;;;;;;;;;;7.60;99.90;;;;;;5015453;28;19975;-67
2023/01/10 04:33:24;;;;;;;;;;;7.20;99.90;;;;;;5032984;28;19925;-67
2023/01/10 04:35:53;;;;;;;;;;;7.50;99.90;;;;;;5015984;28;19925;-67
2023/01/10 04:38:19;;;;;;;;;;;6.70;99.90;;;;;;5015638;28;19921;-67
2023/01/10 04:40:50;;;;;;;;;;;6.30;99.90;;;;;;5032534;28;19928;-68
2023/01/10 04:43:16;;;;;;;;;;;7.30;99.90;;;;;;5033647;28;19979;-67
2023/01/10 04:45:42;;;;;;;;;;;7.80;99.90;;;;;;5015983;28;19921;-67
2023/01/10 04:48:07;;;;;;;;;;;6.40;99.90;;;;;;5014570;28;19967;-67
2023/01/10 04:50:33;;;;;;;;;;;6.50;99.90;;;;;;5015234;28;20368;-67
2023/01/10 04:52:58;;;;;;;;;;;7.40;99.90;;;;;;5033278;28;19979;-67
2023/01/10 04:55:24;;;;;;;;;;;7.80;99.90;;;;;;5014417;28;20001;-67
2023/01/10 04:57:49;;;;;;;;;;;6.90;99.90;;;;;;5033257;28;19927;-68
2023/01/10 05:00:15;;;;;;;;;;;7.00;99.90;;;;;;5015351;28;19951;-67
2023/01/10 05:02:42;;;;;;;;;;;6.40;99.90;;;;;;5014634;28;19921;-67
2023/01/10 05:05:12;;;;;;;;;;;6.40;99.90;;;;;;5021286;28;20417;-67
2023/01/10 05:07:38;;;;;;;;;;;6.40;99.90;;;;;;5032007;28;19925;-68
2023/01/10 05:10:04;;;;;;;;;;;6.40;99.90;;;;;;5033496;28;20330;-68
2023/01/10 05:12:29;;;;;;;;;;;6.40;99.90;;;;;;5032757;28;19917;-68
2023/01/10 05:14:55;;;;;;;;;;;6.50;99.90;;;;;;5031712;28;19975;-68
2023/01/10 05:17:20;;;;;;;;;;;6.50;99.90;;;;;;5032675;28;19921;-67
2023/01/10 05:19:46;;;;;;;;;;;6.50;99.90;;;;;;5031896;28;20403;-67
2023/01/10 05:22:11;;;;;;;;;;;7.60;99.90;;;;;;5032046;28;19928;-67
2023/01/10 05:24:37;;;;;;;;;;;6.50;99.90;;;;;;5032271;28;20299;-68
2023/01/10 05:27:02;;;;;;;;;;;6.90;99.90;;;;;;5056267;28;19921;-68
2023/01/10 05:29:28;;;;;;;;;;;6.60;99.90;;;;;;5031747;28;19920;-67
2023/01/10 05:31:53;;;;;;;;;;;7.80;99.90;;;;;;5031048;28;20423;-67
2023/01/10 05:34:19;;;;;;;;;;;6.60;99.90;;;;;;5031101;28;19921;-68
2023/01/10 05:36:45;;;;;;;;;;;6.60;99.90;;;;;;5031560;28;19921;-68
2023/01/10 05:39:10;;;;;;;;;;;6.60;99.90;;;;;;5032503;28;19928;-67
2023/01/10 05:41:36;;;;;;;;;;;7.30;99.90;;;;;;5031170;28;20388;-67
2023/01/10 05:44:02;;;;;;;;;;;7.30;99.90;;;;;;5031636;28;19925;-67
2023/01/10 05:46:27;;;;;;;;;;;6.40;99.90;;;;;;5031428;28;20328;-67
2023/01/10 05:48:53;;;;;;;;;;;7.50;99.90;;;;;;5031956;28;19968;-67
2023/01/10 05:51:18;;;;;;;;;;;6.30;99.90;;;;;;5030162;28;19921;-67
2023/01/10 05:53:44;;;;;;;;;;;7.50;99.90;;;;;;5030789;28;19921;-67
2023/01/10 05:56:09;;;;;;;;;;;7.50;99.90;;;;;;5032477;28;19917;-67
2023/01/10 05:58:35;;;;;;;;;;;7.80;99.90;;;;;;5030956;28;19921;-67
2023/01/10 06:01:00;;;;;;;;;;;6.90;99.90;;;;;;5031694;28;20273;-67
2023/01/10 06:03:26;;;;;;;;;;;5.90;99.90;;;;;;5031855;28;19925;-67
2023/01/10 06:05:52;;;;;;;;;;;5.80;99.90;;;;;;5030746;28;19979;-67
2023/01/10 06:08:18;;;;;;;;;;;5.80;99.90;;;;;;5014228;28;19924;-67
2023/01/10 06:10:43;;;;;;;;;;;5.70;99.90;;;;;;5014064;28;20414;-67
2023/01/10 06:13:09;;;;;;;;;;;5.60;99.90;;;;;;5013951;28;20292;-67
2023/01/10 06:15:35;;;;;;;;;;;6.80;99.90;;;;;;5013124;28;20296;-67
2023/01/10 06:18:03;;;;;;;;;;;5.80;99.90;;;;;;5031012;28;19921;-68
2023/01/10 06:20:29;;;;;;;;;;;5.60;99.90;;;;;;5030477;28;20008;-68
2023/01/10 06:22:54;;;;;;;;;;;5.30;99.90;;;;;;5031772;28;20360;-67
2023/01/10 06:25:21;;;;;;;;;;;5.30;99.90;;;;;;5030589;28;20003;-67
2023/01/10 06:27:46;;;;;;;;;;;5.30;99.90;;;;;;5031430;28;19939;-66
2023/01/10 06:30:12;;;;;;;;;;;6.10;99.90;;;;;;5013989;28;19920;-66
2023/01/10 06:32:39;;;;;;;;;;;5.00;99.90;;;;;;5017175;28;20257;-66
2023/01/10 06:35:05;;;;;;;;;;;5.70;99.90;;;;;;5017981;28;19947;-66
2023/01/10 06:37:30;;;;;;;;;;;4.70;99.90;;;;;;5035500;28;19921;-66
2023/01/10 06:39:56;;;;;;;;;;;4.60;99.90;;;;;;5034515;28;19929;-68
2023/01/10 06:42:22;;;;;;;;;;;4.60;99.90;;;;;;5017729;28;20012;-67
2023/01/10 06:44:47;;;;;;;;;;;4.60;99.90;;;;;;5035405;28;19960;-66
2023/01/10 06:47:16;;;;;;;;;;;6.20;99.90;;;;;;5017036;28;19995;-70
2023/01/10 06:49:41;;;;;;;;;;;6.70;99.90;;;;;;5035094;28;19921;-71
2023/01/10 06:52:07;;;;;;;;;;;4.80;99.90;;;;;;5018016;28;19928;-70
2023/01/10 06:54:32;;;;;;;;;;;4.80;99.90;;;;;;5016762;28;19921;-71
2023/01/10 06:56:58;;;;;;;;;;;5.10;99.90;;;;;;5034944;28;19925;-70
2023/01/10 06:59:23;;;;;;;;;;;5.00;99.90;;;;;;5034934;28;20285;-70
2023/01/10 07:01:49;;;;;;;;;;;5.30;99.90;;;;;;5034700;28;19928;-69
2023/01/10 07:04:14;;;;;;;;;;;6.70;99.90;;;;;;5017382;28;19971;-70
2023/01/10 07:06:40;;;;;;;;;;;6.70;99.90;;;;;;5035002;28;19971;-75
2023/01/10 07:09:06;;;;;;;;;;;7.40;99.90;;;;;;5016565;28;20014;-68
2023/01/10 07:11:32;;;;;;;;;;;5.50;99.90;;;;;;5034594;28;19921;-69
2023/01/10 07:13:58;;;;;;;;;;;6.50;99.90;;;;;;5017677;28;20020;-70
2023/01/10 07:16:23;;;;;;;;;;;6.90;99.90;;;;;;5033446;28;20016;-66
2023/01/10 07:18:49;;;;;;;;;;;7.30;99.90;;;;;;5016708;28;19921;-72
2023/01/10 07:21:16;;;;;;;;;;;6.40;99.90;;;;;;5016378;28;20032;-70
2023/01/10 07:23:42;;;;;;;;;;;6.00;99.90;;;;;;5034695;28;19921;-72
2023/01/10 07:26:09;;;;;;;;;;;6.60;99.90;;;;;;5033492;28;20364;-74
2023/01/10 07:28:34;;;;;;;;;;;6.20;99.90;;;;;;5014271;28;19946;-69
2023/01/10 07:31:01;;;;;;;;;;;7.00;99.90;;;;;;5032582;28;20332;-72
2023/01/10 07:33:26;;;;;;;;;;;7.10;99.90;;;;;;5032880;28;20351;-67
2023/01/10 07:35:55;;;;;;;;;;;7.10;99.90;;;;;;5013948;28;19925;-68
2023/01/10 07:38:20;;;;;;;;;;;6.90;99.90;;;;;;5031981;28;20384;-68
2023/01/10 07:40:46;;;;;;;;;;;7.50;99.90;;;;;;5014712;28;20488;-68
2023/01/10 07:43:11;;;;;;;;;;;6.70;99.90;;;;;;5013262;28;19929;-68
2023/01/10 07:45:37;;;;;;;;;;;7.60;99.90;;;;;;5032383;28;19921;-68
2023/01/10 07:48:03;;;;;;;;;;;7.00;99.90;;;;;;5014553;28;19971;-68
2023/01/10 07:50:30;;;;;;;;;;;6.60;99.90;;;;;;5010284;28;20023;-68
2023/01/10 07:52:57;;;;;;;;;;;6.30;99.90;;;;;;5005100;28;19921;-68
2023/01/10 07:55:23;;;;;;;;;;;7.50;99.90;;;;;;5016269;28;19921;-68
2023/01/10 07:57:49;;;;;;;;;;;7.50;99.90;;;;;;5015582;28;19921;-68
2023/01/10 08:00:15;;;;;;;;;;;6.40;99.90;;;;;;5016104;28;19968;-68
2023/01/10 08:02:41;;;;;;;;;;;6.30;99.90;;;;;;5034265;28;19967;-66
2023/01/10 08:05:06;;;;;;;;;;;6.30;99.90;;;;;;5033523;28;19925;-67
2023/01/10 08:07:34;;;;;;;;;;;6.40;99.90;;;;;;5031368;28;20373;-67
2023/01/10 08:10:00;;;;;;;;;;;6.30;99.90;;;;;;5034049;28;20368;-67
2023/01/10 08:12:25;;;;;;;;;;;6.40;99.90;;;;;;5032832;28;20078;-67
2023/01/10 08:14:51;;;;;;;;;;;6.50;99.90;;;;;;5010130;28;19936;-67
2023/01/10 08:17:17;;;;;;;;;;;6.30;99.90;;;;;;5027743;28;20022;-67
2023/01/10 08:19:43;;;;;;;;;;;6.30;99.90;;;;;;5015258;28;19928;-67
2023/01/10 08:22:08;;;;;;;;;;;6.90;99.90;;;;;;5015920;28;19921;-66
2023/01/10 08:24:34;;;;;;;;;;;6.20;99.90;;;;;;5014903;28;19920;-68
2023/01/10 08:27:02;;;;;;;;;;;6.20;99.90;;;;;;5033828;28;19921;-67
2023/01/10 08:29:28;;;;;;;;;;;6.90;99.90;;;;;;5033389;28;19928;-67
2023/01/10 08:31:54;;;;;;;;;;;6.80;99.90;;;;;;5015078;28;19928;-67
2023/01/10 08:34:19;;;;;;;;;;;7.90;99.90;;;;;;5015369;28;19928;-67
2023/01/10 08:36:48;;;;;;;;;;;6.60;99.90;;;;;;5033384;28;19921;-67
2023/01/10 08:39:14;;;;;;;;;;;6.70;99.90;;;;;;5014435;28;19921;-68
2023/01/10 08:41:40;;;;;;;;;;;6.20;99.90;;;;;;5015846;28;19921;-67
2023/01/10 08:44:05;;;;;;;;;;;7.10;99.90;;;;;;5033195;28;19964;-67
2023/01/10 08:46:31;;;;;;;;;;;7.70;99.90;;;;;;5032505;28;19917;-68
2023/01/10 08:48:56;;;;;;;;;;;7.10;99.90;;;;;;5033472;28;19924;-67
2023/01/10 08:51:22;;;;;;;;;;;7.00;99.90;;;;;;5015218;28;19924;-67
2023/01/10 08:53:47;;;;;;;;;;;7.00;99.90;;;;;;5031765;28;20323;-68
2023/01/10 08:56:13;;;;;;;;;;;7.60;99.90;;;;;;5015768;28;20003;-68
2023/01/10 08:58:38;;;;;;;;;;;7.50;99.90;;;;;;5027387;28;20004;-68
2023/01/10 09:01:07;;;;;;;;;;;8.50;99.90;;;;;;5010067;28;19921;-68
2023/01/10 09:03:33;;;;;;;;;;;7.90;99.90;;;;;;5021968;28;19921;-68
2023/01/10 09:05:59;;;;;;;;;;;8.60;99.90;;;;;;5026205;28;19987;-68
2023/01/10 09:08:25;;;;;;;;;;;7.70;99.90;;;;;;5017282;28;20011;-67
2023/01/10 09:11:00;;;;;;;;;;;7.50;99.90;;;;;;5030717;28;19999;-67
2023/01/10 09:13:26;;;;;;;;;;;7.20;99.90;;;;;;5029265;28;19921;-68
2023/01/10 09:15:51;;;;;;;;;;;7.40;99.90;;;;;;5032328;28;19928;-68
2023/01/10 09:18:17;;;;;;;;;;;8.90;99.90;;;;;;5032201;28;19917;-68
2023/01/10 09:20:49;;;;;;;;;;;7.90;99.90;;;;;;5031901;28;19920;-68
2023/01/10 09:23:17;;;;;;;;;;;7.70;99.90;;;;;;5032047;28;19936;-68
2023/01/10 09:25:43;;;;;;;;;;;7.60;99.90;;;;;;5032881;28;20285;-68
2023/01/10 09:28:09;;;;;;;;;;;8.50;99.90;;;;;;5031504;28;19975;-68
2023/01/10 09:30:35;;;;;;;;;;;7.40;99.90;;;;;;5032183;28;20273;-68
2023/01/10 09:33:01;;;;;;;;;;;7.70;99.90;;;;;;5030646;28;19928;-71
2023/01/10 09:35:27;;;;;;;;;;;8.00;99.90;;;;;;5030483;28;19925;-71
2023/01/10 09:37:54;;;;;;;;;;;7.40;99.90;;;;;;5025784;28;19956;-71
2023/01/10 09:40:30;;;;;;;;;;;8.90;99.90;;;;;;5020818;28;20017;-72
2023/01/10 09:43:03;;;;;;;;;;;7.50;99.90;;;;;;5026319;28;20357;-69
2023/01/10 09:45:40;;;;;;;;;;;7.50;99.90;;;;;;5024007;28;19925;-68
2023/01/10 09:48:09;;;;;;;;;;;7.40;99.90;;;;;;5029387;28;19944;-69
2023/01/10 09:50:54;;;;;;;;;;;7.20;99.90;;;;;;5026260;28;19921;-69
2023/01/10 09:53:21;;;;;;;;;;;7.40;99.90;;;;;;5026810;28;19996;-69
2023/01/10 09:55:54;;;;;;;;;;;7.50;99.90;;;;;;5030753;28;20304;-69
2023/01/10 09:58:26;;;;;;;;;;;7.50;99.90;;;;;;5029841;28;19928;-68
2023/01/10 10:01:04;;;;;;;;;;;7.60;99.90;;;;;;5026020;28;19922;-68
2023/01/10 10:03:53;;;;;;;;;;;7.40;99.90;;;;;;5023845;28;19925;-68
2023/01/10 10:06:20;;;;;;;;;;;9.80;99.90;;;;;;5004097;28;19968;-68
2023/01/10 10:08:46;;;;;;;;;;;7.30;99.90;;;;;;5014252;28;19982;-68
2023/01/10 10:11:24;;;;;;;;;;;7.10;99.90;;;;;;5009567;28;19925;-68
2023/01/10 10:13:53;;;;;;;;;;;7.20;99.90;;;;;;5024745;28;19920;-68
2023/01/10 10:16:30;;;;;;;;;;;7.30;99.90;;;;;;5021120;28;20011;-68
2023/01/10 10:19:15;;;;;;;;;;;7.10;99.90;;;;;;5012729;28;19921;-68
2023/01/10 10:21:40;;;;;;;;;;;7.20;99.90;;;;;;5030316;28;19924;-68
2023/01/10 10:24:06;;;;;;;;;;;7.20;99.90;;;;;;5013151;28;19982;-68
2023/01/10 10:26:32;;;;;;;;;;;7.60;99.90;;;;;;5030185;28;20364;-68
2023/01/10 10:29:10;;;;;;;;;;;7.10;99.90;;;;;;5010708;28;19929;-68
2023/01/10 10:31:48;;;;;;;;;;;7.30;99.90;;;;;;5023412;28;19928;-68
2023/01/10 10:34:17;;;;;;;;;;;7.30;99.90;;;;;;5009251;28;20603;-70
2023/01/10 10:36:49;;;;;;;;;;;7.40;99.90;;;;;;5011495;28;19940;-70
2023/01/10 10:39:17;;;;;;;;;;;7.40;99.90;;;;;;5027382;28;20008;-70
2023/01/10 10:41:45;;;;;;;;;;;8.80;99.90;;;;;;5030821;28;19924;-68
2023/01/10 10:44:31;;;;;;;;;;;7.40;99.90;;;;;;5031620;28;19921;-69
2023/01/10 10:46:57;;;;;;;;;;;7.80;99.90;;;;;;5029780;28;19921;-68
2023/01/10 10:49:33;;;;;;;;;;;8.50;99.90;;;;;;5013240;28;20004;-69
2023/01/10 10:52:01;;;;;;;;;;;7.30;99.90;;;;;;5031819;28;19925;-71
2023/01/10 10:54:27;;;;;;;;;;;8.60;99.90;;;;;;5012598;28;19932;-68
2023/01/10 10:56:54;;;;;;;;;;;7.30;99.90;;;;;;5031389;28;19921;-68
2023/01/10 10:59:20;;;;;;;;;;;8.20;99.90;;;;;;5029949;28;20012;-68
2023/01/10 11:01:48;;;;;;;;;;;8.10;99.90;;;;;;5013742;28;20342;-69
2023/01/10 11:04:15;;;;;;;;;;;7.30;99.90;;;;;;5019332;28;19983;-68
2023/01/10 11:06:47;;;;;;;;;;;7.30;99.90;;;;;;5009825;28;20424;-68
2023/01/10 11:09:16;;;;;;;;;;;7.30;99.90;;;;;;5019141;28;20369;-69
2023/01/10 11:11:43;;;;;;;;;;;7.20;99.90;;;;;;5028172;28;19928;-68
2023/01/10 11:14:12;;;;;;;;;;;7.40;99.90;;;;;;5024849;28;19921;-68
2023/01/10 11:16:43;;;;;;;;;;;7.50;99.90;;;;;;5018317;28;20419;-68
2023/01/10 11:19:22;;;;;;;;;;;8.70;99.90;;;;;;5015372;28;19975;-68
2023/01/10 11:21:54;;;;;;;;;;;7.20;99.90;;;;;;5028386;28;20015;-68
2023/01/10 11:24:19;;;;;;;;;;;7.20;99.90;;;;;;5013846;28;19928;-68
2023/01/10 11:26:45;;;;;;;;;;;7.20;99.90;;;;;;5022250;28;19920;-68
2023/01/10 11:29:19;;;;;;;;;;;7.20;99.90;;;;;;5020976;28;19928;-67
2023/01/10 11:31:45;;;;;;;;;;;7.30;99.90;;;;;;5012856;28;19921;-67
2023/01/10 11:34:19;;;;;;;;;;;7.30;99.90;;;;;;5033403;28;19929;-68
2023/01/10 11:36:51;;;;;;;;;;;7.20;99.90;;;;;;5033519;28;19928;-67
2023/01/10 11:39:17;;;;;;;;;;;7.20;99.90;;;;;;5012798;28;19947;-67
2023/01/10 11:41:42;;;;;;;;;;;7.00;99.90;;;;;;5020822;28;20325;-67
2023/01/10 11:44:25;;;;;;;;;;;8.30;99.90;;;;;;5008421;28;20040;-67
2023/01/10 11:46:53;;;;;;;;;;;7.00;99.90;;;;;;5024516;28;20016;-67
2023/01/10 11:49:24;;;;;;;;;;;8.10;99.90;;;;;;5032502;28;19979;-67
2023/01/10 11:51:51;;;;;;;;;;;7.00;99.90;;;;;;5016195;28;19928;-67
2023/01/10 11:54:19;;;;;;;;;;;8.00;99.90;;;;;;5034343;28;19951;-67
2023/01/10 11:56:53;;;;;;;;;;;7.70;99.90;;;;;;5027160;28;20008;-68
2023/01/10 11:59:18;;;;;;;;;;;7.00;99.90;;;;;;5010097;28;19929;-67
2023/01/10 12:01:46;;;;;;;;;;;8.10;99.90;;;;;;5010947;28;19921;-68
2023/01/10 12:04:16;;;;;;;;;;;7.70;99.90;;;;;;5013183;28;19921;-68
2023/01/10 12:06:45;;;;;;;;;;;7.00;99.90;;;;;;5033874;28;19921;-66
2023/01/10 12:09:30;;;;;;;;;;;7.00;99.90;;;;;;5014553;28;20364;-66
2023/01/10 12:12:23;;;;;;;;;;;7.00;99.90;;;;;;5012248;28;19921;-67
2023/01/10 12:14:49;;;;;;;;;;;7.00;99.90;;;;;;5014223;28;19932;-67
2023/01/10 12:17:28;;;;;;;;;;;7.00;99.90;;;;;;5014715;28;19972;-67
2023/01/10 12:19:57;;;;;;;;;;;7.00;99.90;;;;;;5032461;28;19921;-67
2023/01/10 12:22:25;;;;;;;;;;;7.00;99.90;;;;;;5012302;28;20015;-67
2023/01/10 12:24:52;;;;;;;;;;;6.90;99.90;;;;;;5028758;28;19928;-68
2023/01/10 12:27:18;;;;;;;;;;;7.20;99.90;;;;;;5033044;28;19992;-67
2023/01/10 12:30:04;;;;;;;;;;;7.00;99.90;;;;;;5014259;28;19924;-68
2023/01/10 12:32:37;;;;;;;;;;;7.00;99.90;;;;;;5030392;28;20292;-68
2023/01/10 12:35:05;;;;;;;;;;;7.00;99.90;;;;;;5033508;28;19921;-69
2023/01/10 12:37:36;;;;;;;;;;;6.90;99.90;;;;;;5015428;28;19921;-68
2023/01/10 12:40:08;;;;;;;;;;;6.90;99.90;;;;;;5033367;28;20011;-68
2023/01/10 12:45:39;;;;;;;;;;;7.00;99.90;;;;;;5031320;28;19928;-68
2023/01/10 12:48:18;;;;;;;;;;;7.20;99.90;;;;;;5033577;28;19921;-68
2023/01/10 12:50:47;;;;;;;;;;;6.80;99.90;;;;;;5032924;28;20373;-68
2023/01/10 12:53:37;;;;;;;;;;;6.70;99.90;;;;;;5014990;28;19921;-68
2023/01/10 12:56:06;;;;;;;;;;;6.80;99.90;;;;;;5014253;28;19921;-68
2023/01/10 12:58:38;;;;;;;;;;;6.90;99.90;;;;;;5032780;28;19917;-68
2023/01/10 13:01:04;;;;;;;;;;;6.90;99.90;;;;;;5032294;28;19925;-69
2023/01/10 13:03:30;;;;;;;;;;;7.00;99.90;;;;;;5014953;28;20003;-69
2023/01/10 13:05:56;;;;;;;;;;;7.70;99.90;;;;;;5031814;28;19927;-69
2023/01/10 13:08:24;;;;;;;;;;;6.90;99.90;;;;;;5014564;28;19921;-68
2023/01/10 13:10:51;;;;;;;;;;;6.90;99.90;;;;;;5031994;28;19968;-68
2023/01/10 13:13:19;;;;;;;;;;;6.90;99.90;;;;;;5031598;28;19932;-68
2023/01/10 13:16:14;;;;;;;;;;;7.00;99.90;;;;;;5014878;28;20270;-68
2023/01/10 13:18:56;;;;;;;;;;;6.90;99.90;;;;;;5032774;28;19920;-68
2023/01/10 13:21:24;;;;;;;;;;;6.90;99.90;;;;;;5028881;28;19921;-71
2023/01/10 13:23:57;;;;;;;;;;;7.70;99.90;;;;;;5015181;28;19925;-69
2023/01/10 13:26:23;;;;;;;;;;;6.80;99.90;;;;;;5031914;28;19967;-69
2023/01/10 13:28:58;;;;;;;;;;;7.70;99.90;;;;;;5031436;28;20012;-69
2023/01/10 13:31:25;;;;;;;;;;;7.00;99.90;;;;;;5031789;28;19956;-70
2023/01/10 13:33:53;;;;;;;;;;;7.60;99.90;;;;;;5014294;28;19924;-70
2023/01/10 13:36:20;;;;;;;;;;;8.70;99.90;;;;;;5014567;28;19921;-70
2023/01/10 13:38:45;;;;;;;;;;;6.80;99.90;;;;;;5014490;28;19921;-70
2023/01/10 13:43:17;;;;;;;;;;;7.60;99.90;;;;;;5031122;28;20404;-70
2023/01/10 13:43:59;;;;;;;;;;;6.90;99.90;;;;;;5032395;28;19995;-70
2023/01/10 13:46:25;;;;;;;;;;;6.90;99.90;;;;;;5032096;28;19916;-70
2023/01/10 13:48:58;;;;;;;;;;;6.90;99.90;;;;;;5013434;28;19944;-69
2023/01/10 13:51:28;;;;;;;;;;;6.40;99.90;;;;;;5014068;28;19971;-68
2023/01/10 13:53:56;;;;;;;;;;;6.80;99.90;;;;;;5014104;28;20261;-69
2023/01/10 13:56:35;;;;;;;;;;;6.80;99.90;;;;;;5013264;28;19927;-68
2023/01/10 14:04:37;;;;;;;;;;;6.80;99.90;;;;;;5009813;28;19929;-68
2023/01/10 14:07:13;;;;;;;;;;;6.80;99.90;;;;;;5025072;28;20586;-71
2023/01/10 14:09:44;;;;;;;;;;;6.80;99.90;;;;;;5008652;28;20331;-69
2023/01/10 14:12:18;;;;;;;;;;;6.80;99.90;;;;;;5030353;28;19921;-69
2023/01/10 14:14:50;;;;;;;;;;;6.80;99.90;;;;;;5030758;28;19925;-69
2023/01/10 14:17:28;;;;;;;;;;;6.70;99.90;;;;;;5009166;28;19925;-68
2023/01/10 14:20:01;;;;;;;;;;;6.70;99.90;;;;;;5031351;28;19927;-68
2023/01/10 14:22:34;;;;;;;;;;;6.60;99.90;;;;;;5012611;28;20081;-67
2023/01/10 14:25:02;;;;;;;;;;;6.70;99.90;;;;;;5009076;28;19925;-69
2023/01/10 14:27:36;;;;;;;;;;;6.70;99.90;;;;;;5012928;28;19924;-68
2023/01/10 14:30:02;;;;;;;;;;;6.70;99.90;;;;;;5008955;28;19921;-67
2023/01/10 14:32:33;;;;;;;;;;;6.70;99.90;;;;;;5010861;28;20292;-69
2023/01/10 14:35:04;;;;;;;;;;;6.70;99.90;;;;;;5030708;28;19932;-69
2023/01/10 14:37:38;;;;;;;;;;;6.70;99.90;;;;;;5025812;28;19921;-69
2023/01/10 14:40:16;;;;;;;;;;;7.20;99.90;;;;;;5009877;28;19921;-70
2023/01/10 14:42:42;;;;;;;;;;;6.50;99.90;;;;;;5012548;28;19983;-68
2023/01/10 14:45:23;;;;;;;;;;;6.60;99.90;;;;;;5012373;28;19921;-69
2023/01/10 14:47:52;;;;;;;;;;;6.70;99.90;;;;;;5029656;28;20040;-69
2023/01/10 14:50:31;;;;;;;;;;;7.00;99.90;;;;;;5027438;28;19920;-68
2023/01/10 14:52:59;;;;;;;;;;;6.90;99.90;;;;;;5011386;28;19975;-70